createdAt,value
2023-04-13T00:00:47.005Z,1.85
2023-04-13T00:03:18.071Z,1.70
2023-04-13T00:05:46.958Z,1.48
2023-04-13T00:08:18.080Z,1.73
2023-04-13T00:10:46.291Z,1.65
2023-04-13T00:13:14.834Z,1.70
2023-04-13T00:15:43.849Z,1.45
2023-04-13T00:18:11.511Z,1.50
2023-04-13T00:20:41.947Z,1.55
2023-04-13T00:23:09.921Z,1.67
2023-04-13T00:25:37.334Z,1.30
2023-04-13T00:28:06.333Z,1.60
2023-04-13T00:30:33.962Z,1.30
2023-04-13T00:33:04.505Z,1.10
2023-04-13T00:35:32.066Z,1.30
2023-04-13T00:38:00.520Z,1.27
2023-04-13T00:40:29.016Z,1.15
2023-04-13T00:42:56.820Z,1.13
2023-04-13T00:45:24.255Z,1.52
2023-04-13T00:47:52.170Z,1.40
2023-04-13T00:50:21.347Z,0.90
2023-04-13T00:52:50.202Z,1.00
2023-04-13T00:55:21.624Z,0.95
2023-04-13T00:57:53.476Z,1.02
2023-04-13T01:00:22.811Z,0.88
2023-04-13T01:02:51.093Z,1.17
2023-04-13T01:05:19.586Z,0.80
2023-04-13T01:08:02.062Z,1.10
2023-04-13T01:10:54.245Z,0.90
2023-04-13T01:13:35.150Z,1.00
2023-04-13T01:16:19.171Z,1.02
2023-04-13T01:18:51.409Z,0.90
2023-04-13T01:21:24.689Z,0.82
2023-04-13T01:23:58.568Z,1.10
2023-04-13T01:26:51.430Z,1.37
2023-04-13T01:29:19.772Z,1.20
2023-04-13T01:31:48.905Z,0.80
2023-04-13T01:34:17.109Z,1.10
2023-04-13T01:36:45.731Z,1.02
2023-04-13T01:39:25.622Z,0.85
2023-04-13T01:42:02.474Z,0.82
2023-04-13T01:44:34.011Z,0.55
2023-04-13T01:47:15.635Z,0.80
2023-04-13T01:50:06.757Z,0.77
2023-04-13T01:52:50.952Z,0.80
2023-04-13T01:55:19.506Z,0.75
2023-04-13T01:57:55.251Z,0.70
2023-04-13T02:00:31.784Z,0.70
2023-04-13T02:02:59.776Z,1.08
2023-04-13T02:05:30.409Z,1.17
2023-04-13T02:07:58.213Z,1.33
2023-04-13T02:10:26.523Z,0.93
2023-04-13T02:12:54.541Z,1.17
2023-04-13T02:15:23.257Z,0.90
2023-04-13T02:17:50.902Z,1.10
2023-04-13T02:20:18.442Z,1.40
2023-04-13T02:22:46.268Z,0.75
2023-04-13T02:25:18.883Z,0.90
2023-04-13T02:27:46.349Z,0.90
2023-04-13T02:30:13.840Z,1.10
2023-04-13T02:32:41.741Z,0.90
2023-04-13T02:35:11.406Z,0.80
2023-04-13T02:37:40.278Z,1.00
2023-04-13T02:40:10.734Z,0.70
2023-04-13T02:42:39.094Z,0.70
2023-04-13T02:45:08.771Z,0.90
2023-04-13T02:47:38.645Z,0.50
2023-04-13T02:50:06.756Z,1.00
2023-04-13T02:52:41.594Z,1.05
2023-04-13T02:55:09.533Z,0.93
2023-04-13T02:57:59.550Z,0.73
2023-04-13T03:00:28.581Z,0.70
2023-04-13T03:03:00.064Z,0.65
2023-04-13T03:05:32.881Z,0.70
2023-04-13T03:08:02.524Z,0.50
2023-04-13T03:10:30.981Z,1.17
2023-04-13T03:13:00.047Z,0.70
2023-04-13T03:15:27.660Z,0.90
2023-04-13T03:17:55.112Z,0.88
2023-04-13T03:20:25.506Z,0.70
2023-04-13T03:22:59.395Z,0.73
2023-04-13T03:25:29.741Z,0.65
2023-04-13T03:27:58.248Z,0.50
2023-04-13T03:30:29.266Z,0.50
2023-04-13T03:33:00.380Z,0.60
2023-04-13T03:35:31.438Z,0.60
2023-04-13T03:38:01.776Z,0.75
2023-04-13T03:40:49.110Z,0.82
2023-04-13T03:43:16.603Z,1.00
2023-04-13T03:45:49.888Z,1.00
2023-04-13T03:48:19.161Z,0.80
2023-04-13T03:50:47.300Z,0.90
2023-04-13T03:53:21.699Z,1.08
2023-04-13T03:55:51.125Z,0.77
2023-04-13T03:58:18.812Z,1.10
2023-04-13T04:00:46.272Z,1.60
2023-04-13T04:03:25.607Z,1.55
2023-04-13T04:05:56.849Z,0.70
2023-04-13T04:08:26.641Z,0.65
2023-04-13T04:10:57.065Z,0.55
2023-04-13T04:13:27.205Z,0.65
2023-04-13T04:15:58.133Z,0.50
2023-04-13T04:18:25.510Z,0.47
2023-04-13T04:20:53.273Z,0.30
2023-04-13T04:23:20.769Z,0.47
2023-04-13T04:25:59.538Z,0.50
2023-04-13T04:28:38.469Z,0.50
2023-04-13T04:31:10.687Z,0.45
2023-04-13T04:33:39.998Z,0.40
2023-04-13T04:36:14.259Z,0.40
2023-04-13T04:38:58.020Z,0.45
2023-04-13T04:41:26.614Z,0.45
2023-04-13T04:44:03.436Z,0.40
2023-04-13T04:46:38.629Z,0.50
2023-04-13T04:49:11.132Z,0.95
2023-04-13T04:51:39.424Z,0.80
2023-04-13T04:54:08.009Z,1.02
2023-04-13T04:56:35.495Z,1.17
2023-04-13T04:59:02.907Z,1.10
2023-04-13T05:01:43.431Z,1.48
2023-04-13T05:04:13.357Z,1.45
2023-04-13T05:06:44.734Z,1.48
2023-04-13T05:09:19.076Z,1.33
2023-04-13T05:11:50.658Z,1.52
2023-04-13T05:14:19.974Z,1.25
2023-04-13T05:16:49.234Z,0.95
2023-04-13T05:19:24.736Z,0.70
2023-04-13T05:21:55.364Z,0.95
2023-04-13T05:24:23.775Z,1.02
2023-04-13T05:26:53.010Z,1.00
2023-04-13T05:29:23.770Z,0.80
2023-04-13T05:31:51.697Z,0.82
2023-04-13T05:34:19.877Z,1.13
2023-04-13T05:37:14.724Z,0.75
2023-04-13T05:39:45.983Z,0.75
2023-04-13T05:42:16.498Z,0.70
2023-04-13T05:44:45.788Z,0.85
2023-04-13T05:47:14.599Z,0.50
2023-04-13T05:49:45.047Z,3.70
2023-04-13T05:52:17.789Z,0.82
2023-04-13T05:54:49.936Z,0.40
2023-04-13T05:57:21.508Z,0.57
2023-04-13T05:59:53.071Z,0.82
2023-04-13T06:02:26.859Z,0.80
2023-04-13T06:04:55.178Z,0.93
2023-04-13T06:07:25.992Z,1.48
2023-04-13T06:09:53.517Z,1.27
2023-04-13T06:12:22.331Z,0.85
2023-04-13T06:14:50.201Z,1.00
2023-04-13T06:17:17.729Z,0.70
2023-04-13T06:19:45.669Z,0.70
2023-04-13T06:22:16.727Z,0.75
2023-04-13T06:24:44.316Z,0.80
2023-04-13T06:27:13.871Z,0.70
2023-04-13T06:29:49.085Z,0.60
2023-04-13T06:32:16.879Z,0.50
2023-04-13T06:34:46.045Z,0.63
2023-04-13T06:37:16.284Z,0.57
2023-04-13T06:39:47.641Z,0.52
2023-04-13T06:42:16.307Z,0.50
2023-04-13T06:45:02.492Z,0.55
2023-04-13T06:47:40.626Z,0.73
2023-04-13T06:50:10.906Z,0.60
2023-04-13T06:52:38.500Z,0.57
2023-04-13T06:55:07.344Z,0.70
2023-04-13T06:57:38.605Z,0.77
2023-04-13T07:00:15.464Z,0.75
2023-04-13T07:02:54.263Z,1.27
2023-04-13T07:05:23.829Z,1.20
2023-04-13T07:07:54.258Z,1.10
2023-04-13T07:10:23.009Z,1.17
2023-04-13T07:12:51.479Z,1.10
2023-04-13T07:15:22.381Z,1.10
2023-04-13T07:17:50.352Z,1.05
2023-04-13T07:20:18.215Z,1.02
2023-04-13T07:22:47.743Z,0.60
2023-04-13T07:25:16.445Z,0.60
2023-04-13T07:27:45.636Z,0.90
2023-04-13T07:30:14.010Z,1.05
2023-04-13T07:32:46.087Z,0.80
2023-04-13T07:35:13.535Z,0.73
2023-04-13T07:37:43.027Z,1.15
2023-04-13T07:40:11.832Z,0.90
2023-04-13T07:42:41.644Z,0.82
2023-04-13T07:45:11.541Z,0.85
2023-04-13T07:47:39.999Z,0.80
2023-04-13T07:50:10.588Z,0.93
2023-04-13T07:52:38.972Z,1.25
2023-04-13T07:55:07.579Z,0.90
2023-04-13T07:57:42.843Z,1.05
2023-04-13T08:00:12.469Z,1.17
2023-04-13T08:02:46.960Z,1.10
2023-04-13T08:05:19.894Z,0.90
2023-04-13T08:07:49.340Z,0.70
2023-04-13T08:10:17.023Z,0.80
2023-04-13T08:12:44.757Z,0.93
2023-04-13T08:15:15.040Z,1.00
2023-04-13T08:17:42.899Z,1.33
2023-04-13T08:20:10.592Z,0.70
2023-04-13T08:22:39.502Z,1.00
2023-04-13T08:25:07.406Z,1.05
2023-04-13T08:27:35.357Z,0.75
2023-04-13T08:30:05.567Z,0.82
2023-04-13T08:32:44.022Z,0.70
2023-04-13T08:35:12.393Z,1.08
2023-04-13T08:37:40.880Z,0.75
2023-04-13T08:40:12.778Z,0.77
2023-04-13T08:42:42.180Z,0.65
2023-04-13T08:48:30.295Z,0.80
2023-04-13T08:51:11.870Z,0.98
2023-04-13T08:53:47.655Z,0.52
2023-04-13T08:56:42.256Z,1.00
2023-04-13T08:59:16.489Z,0.70
2023-04-13T09:01:48.936Z,0.70
2023-04-13T09:04:25.579Z,0.75
2023-04-13T09:06:59.936Z,1.10
2023-04-13T09:09:28.740Z,0.60
2023-04-13T09:11:57.177Z,0.80
2023-04-13T09:14:26.816Z,0.60
2023-04-13T09:16:54.352Z,0.93
2023-04-13T09:19:31.734Z,0.85
2023-04-13T09:21:59.334Z,1.05
2023-04-13T09:24:27.713Z,1.00
2023-04-13T09:26:55.216Z,0.80
2023-04-13T09:29:29.287Z,0.70
2023-04-13T09:31:57.385Z,0.93
2023-04-13T09:34:31.848Z,1.00
2023-04-13T09:37:11.247Z,0.87
2023-04-13T09:39:38.721Z,0.90
2023-04-13T09:42:13.814Z,1.10
2023-04-13T09:44:41.476Z,1.20
2023-04-13T09:47:09.272Z,0.82
2023-04-13T09:49:42.422Z,0.50
2023-04-13T09:52:29.880Z,0.70
2023-04-13T09:55:01.681Z,0.90
2023-04-13T09:57:31.543Z,0.90
2023-04-13T10:00:07.273Z,0.90
2023-04-13T10:02:41.891Z,0.75
2023-04-13T10:05:10.150Z,0.88
2023-04-13T10:07:38.325Z,0.80
2023-04-13T10:10:06.639Z,0.60
2023-04-13T10:12:37.338Z,0.60
2023-04-13T10:15:27.902Z,0.70
2023-04-13T10:18:15.433Z,0.50
2023-04-13T10:20:44.575Z,0.50
2023-04-13T10:23:18.972Z,0.80
2023-04-13T10:25:59.176Z,0.70
2023-04-13T10:28:29.650Z,0.75
2023-04-13T10:30:57.570Z,0.82
2023-04-13T10:33:31.838Z,0.80
2023-04-13T10:36:08.619Z,0.70
2023-04-13T10:38:46.922Z,1.60
2023-04-13T10:42:18.182Z,1.13
2023-04-13T10:47:48.389Z,1.00
2023-04-13T10:50:23.920Z,1.73
2023-04-13T10:53:06.400Z,0.70
2023-04-13T10:55:42.769Z,0.70
2023-04-13T10:58:18.300Z,0.60
2023-04-13T11:01:04.086Z,0.70
2023-04-13T11:03:37.538Z,0.60
2023-04-13T11:06:06.171Z,0.60
2023-04-13T11:08:36.311Z,0.50
2023-04-13T11:11:50.542Z,0.77
2023-04-13T11:14:22.799Z,0.73
2023-04-13T11:16:50.892Z,0.60
2023-04-13T11:19:19.198Z,0.70
2023-04-13T11:21:53.374Z,0.63
2023-04-13T11:25:20.448Z,0.63
2023-04-13T11:27:58.786Z,0.70
2023-04-13T11:30:30.829Z,0.70
2023-04-13T11:37:01.855Z,0.57
2023-04-13T11:44:04.841Z,0.70
2023-04-13T11:46:36.406Z,0.88
2023-04-13T11:49:13.864Z,0.60
2023-04-13T11:51:47.387Z,0.90
2023-04-13T11:54:22.044Z,0.60
2023-04-13T11:56:52.336Z,0.73
2023-04-13T11:59:25.553Z,0.60
2023-04-13T12:02:02.820Z,1.17
2023-04-13T12:04:41.941Z,0.80
2023-04-13T12:07:22.052Z,0.77
2023-04-13T12:10:20.472Z,0.70
2023-04-13T12:16:07.782Z,0.68
2023-04-13T12:18:55.261Z,0.50
2023-04-13T12:21:40.184Z,0.82
2023-04-13T12:24:12.617Z,0.85
2023-04-13T12:27:22.190Z,0.80
2023-04-13T12:30:11.915Z,0.63
2023-04-13T12:32:58.817Z,0.90
2023-04-13T12:35:38.940Z,0.82
2023-04-13T12:39:13.715Z,0.70
2023-04-13T12:48:08.706Z,0.70
2023-04-13T12:50:36.744Z,0.70
2023-04-13T12:53:53.230Z,0.85
2023-04-13T12:58:49.245Z,0.90
2023-04-13T13:01:17.309Z,0.80
2023-04-13T13:03:46.425Z,0.70
2023-04-13T13:06:14.391Z,1.05
2023-04-13T13:08:42.044Z,0.60
2023-04-13T13:11:09.383Z,0.75
2023-04-13T13:13:36.835Z,0.60
2023-04-13T13:16:05.877Z,0.68
2023-04-13T13:18:49.044Z,0.70
2023-04-13T13:21:18.126Z,0.65
2023-04-13T13:23:46.004Z,0.80
2023-04-13T13:28:46.702Z,0.75
2023-04-13T13:31:15.676Z,0.57
2023-04-13T13:33:43.586Z,0.68
2023-04-13T13:36:12.651Z,0.70
2023-04-13T13:38:41.208Z,0.60
2023-04-13T13:41:08.603Z,1.10
2023-04-13T13:43:36.491Z,0.70
2023-04-13T13:46:05.520Z,0.60
2023-04-13T13:48:34.316Z,0.80
2023-04-13T13:51:32.652Z,0.68
2023-04-13T13:54:01.604Z,0.68
2023-04-13T13:56:29.020Z,0.73
2023-04-13T13:58:56.463Z,1.20
2023-04-13T14:01:23.914Z,0.70
2023-04-13T14:03:51.902Z,0.73
2023-04-13T14:06:20.301Z,0.57
2023-04-13T14:08:47.766Z,0.60
2023-04-13T14:11:15.164Z,0.85
2023-04-13T14:13:42.630Z,0.95
2023-04-13T14:16:10.229Z,0.70
2023-04-13T14:18:37.750Z,0.73
2023-04-13T14:21:05.377Z,0.88
2023-04-13T14:23:32.985Z,0.88
2023-04-13T14:26:00.673Z,0.80
2023-04-13T14:28:35.441Z,0.60
2023-04-13T14:31:05.523Z,1.77
2023-04-13T14:33:33.589Z,0.70
2023-04-13T14:36:04.837Z,0.90
2023-04-13T14:38:34.502Z,0.80
2023-04-13T14:41:02.148Z,0.60
2023-04-13T14:43:30.069Z,1.38
2023-04-13T14:46:00.529Z,1.05
2023-04-13T14:48:28.490Z,0.85
2023-04-13T14:50:58.612Z,0.90
2023-04-13T14:53:36.730Z,1.20
2023-04-13T14:56:18.413Z,1.27
2023-04-13T14:58:54.725Z,0.85
2023-04-13T15:01:52.638Z,1.10
2023-04-13T15:04:20.919Z,0.63
2023-04-13T15:06:51.887Z,1.35
2023-04-13T15:09:19.651Z,0.70
2023-04-13T15:11:54.743Z,0.70
2023-04-13T15:14:23.109Z,0.52
2023-04-13T15:16:51.022Z,0.63
2023-04-13T15:19:22.088Z,0.57
2023-04-13T15:21:49.543Z,0.80
2023-04-13T15:24:19.602Z,1.00
2023-04-13T15:26:47.311Z,0.50
2023-04-13T15:29:14.832Z,0.63
2023-04-13T15:31:51.877Z,1.10
2023-04-13T15:34:19.761Z,0.65
2023-04-13T15:36:48.043Z,0.73
2023-04-13T15:39:22.607Z,0.70
2023-04-13T15:42:29.339Z,0.80
2023-04-13T15:44:56.906Z,0.90
2023-04-13T15:47:24.409Z,0.75
2023-04-13T15:49:52.069Z,0.80
2023-04-13T15:52:19.442Z,1.08
2023-04-13T15:54:47.075Z,0.90
2023-04-13T15:57:16.330Z,0.60
2023-04-13T15:59:43.754Z,1.10
2023-04-13T16:02:11.344Z,0.90
2023-04-13T16:04:38.910Z,2.03
2023-04-13T16:07:13.763Z,0.70
2023-04-13T16:09:56.064Z,1.00
2023-04-13T16:12:26.684Z,0.68
2023-04-13T16:14:59.295Z,0.95
2023-04-13T16:17:33.599Z,1.00
2023-04-13T16:20:17.064Z,1.17
2023-04-13T16:23:10.742Z,0.90
2023-04-13T16:25:41.800Z,0.77
2023-04-13T16:28:10.182Z,0.70
2023-04-13T16:30:37.781Z,0.85
2023-04-13T16:33:05.875Z,0.70
2023-04-13T16:35:33.360Z,1.35
2023-04-13T16:38:01.393Z,0.90
2023-04-13T16:40:30.242Z,0.90
2023-04-13T16:43:06.545Z,1.17
2023-04-13T16:45:34.037Z,0.95
2023-04-13T16:48:01.460Z,0.93
2023-04-13T16:50:31.874Z,1.27
2023-04-13T16:53:00.603Z,0.85
2023-04-13T16:55:28.816Z,0.70
2023-04-13T16:57:59.911Z,0.93
2023-04-13T17:01:13.596Z,0.80
2023-04-13T17:03:41.285Z,1.08
2023-04-13T17:11:17.053Z,0.90
2023-04-13T17:13:44.292Z,0.68
2023-04-13T17:16:14.259Z,0.90
2023-04-13T17:23:48.667Z,0.90
2023-04-13T17:27:05.441Z,0.85
2023-04-13T17:30:09.596Z,0.70
2023-04-13T17:32:47.410Z,0.70
2023-04-13T17:35:16.291Z,0.82
2023-04-13T17:37:46.747Z,1.13
2023-04-13T17:40:17.428Z,0.63
2023-04-13T17:42:44.448Z,0.80
2023-04-13T17:45:12.768Z,0.80
2023-04-13T17:47:39.879Z,0.70
2023-04-13T17:50:07.772Z,0.90
2023-04-13T17:52:35.700Z,0.70
2023-04-13T17:55:02.973Z,0.70
2023-04-13T17:57:30.350Z,0.75
2023-04-13T17:59:57.335Z,0.80
2023-04-13T18:02:26.006Z,1.00
2023-04-13T18:04:53.051Z,0.75
2023-04-13T18:07:21.840Z,0.80
2023-04-13T18:09:49.734Z,0.70
2023-04-13T18:12:26.433Z,0.90
2023-04-13T18:14:53.960Z,2.25
2023-04-13T18:17:21.777Z,1.70
2023-04-13T18:19:53.868Z,1.30
2023-04-13T18:22:20.963Z,1.00
2023-04-13T18:24:48.286Z,0.80
2023-04-13T18:27:15.470Z,0.70
2023-04-13T18:29:44.337Z,0.80
2023-04-13T18:32:11.854Z,0.50
2023-04-13T18:34:42.251Z,0.90
2023-04-13T18:37:10.154Z,0.65
2023-04-13T18:39:48.272Z,0.60
2023-04-13T18:43:21.450Z,0.90
2023-04-13T18:45:52.095Z,0.95
2023-04-13T18:48:20.470Z,0.70
2023-04-13T18:50:48.355Z,0.63
2023-04-13T18:53:19.611Z,0.90
2023-04-13T18:55:52.572Z,0.68
2023-04-13T18:58:20.828Z,0.60
2023-04-13T19:00:56.219Z,0.90
2023-04-13T19:03:41.667Z,1.25
2023-04-13T19:06:17.366Z,1.23
2023-04-13T19:09:38.932Z,1.52
2023-04-13T19:12:44.755Z,1.20
2023-04-13T19:15:14.982Z,0.90
2023-04-13T19:17:44.005Z,0.82
2023-04-13T19:20:11.875Z,1.05
2023-04-13T19:22:39.455Z,1.02
2023-04-13T19:25:16.312Z,1.00
2023-04-13T19:27:46.857Z,0.80
2023-04-13T19:30:19.438Z,1.00
2023-04-13T19:32:51.421Z,0.90
2023-04-13T19:35:31.335Z,0.93
2023-04-13T19:38:07.325Z,0.95
2023-04-13T19:40:36.003Z,1.13
2023-04-13T19:43:04.094Z,1.00
2023-04-13T19:45:34.087Z,1.52
2023-04-13T19:48:03.593Z,1.05
2023-04-13T19:50:32.005Z,1.00
2023-04-13T19:53:00.039Z,1.13
2023-04-13T19:55:31.669Z,1.08
2023-04-13T19:58:08.518Z,0.80
2023-04-13T20:00:44.981Z,1.33
2023-04-13T20:03:14.628Z,1.00
2023-04-13T20:05:55.634Z,1.10
2023-04-13T20:08:24.736Z,0.95
2023-04-13T20:10:53.456Z,0.80
2023-04-13T20:13:21.454Z,1.10
2023-04-13T20:15:49.887Z,0.93
2023-04-13T20:18:18.565Z,1.17
2023-04-13T20:20:46.751Z,1.48
2023-04-13T20:23:14.627Z,1.15
2023-04-13T20:25:42.531Z,1.30
2023-04-13T20:28:11.268Z,1.23
2023-04-13T20:30:39.804Z,1.23
2023-04-13T20:33:07.539Z,0.80
2023-04-13T20:35:35.548Z,1.30
2023-04-13T20:38:04.636Z,1.20
2023-04-13T20:40:36.136Z,1.30
2023-04-13T20:43:04.015Z,1.27
2023-04-13T20:45:31.612Z,1.30
2023-04-13T20:50:49.251Z,1.10
2023-04-13T20:53:17.707Z,1.73
2023-04-13T20:55:45.896Z,1.58
2023-04-13T20:58:13.407Z,1.40
2023-04-13T21:00:43.020Z,1.95
2023-04-13T21:03:11.699Z,1.20
2023-04-13T21:05:39.734Z,1.90
2023-04-13T21:08:08.662Z,2.03
2023-04-13T21:10:36.250Z,2.08
2023-04-13T21:13:04.062Z,2.00
2023-04-13T21:15:35.095Z,1.85
2023-04-13T21:18:02.986Z,2.30
2023-04-13T21:20:30.683Z,2.10
2023-04-13T21:22:58.921Z,2.25
2023-04-13T21:25:27.052Z,1.77
2023-04-13T21:27:54.897Z,2.30
2023-04-13T21:30:22.519Z,3.03
2023-04-13T21:32:51.632Z,1.80
2023-04-13T21:35:19.611Z,2.00
2023-04-13T21:37:47.241Z,2.75
2023-04-13T21:40:20.194Z,2.03
2023-04-13T21:42:50.491Z,2.08
2023-04-13T21:45:18.216Z,2.25
2023-04-13T21:47:47.065Z,2.03
2023-04-13T21:50:15.858Z,2.25
2023-04-13T21:52:44.724Z,2.80
2023-04-13T21:55:17.816Z,2.22
2023-04-13T21:58:14.874Z,2.90
2023-04-13T22:00:51.912Z,3.00
2023-04-13T22:07:47.363Z,3.67
2023-04-13T22:10:15.669Z,3.53
2023-04-13T22:13:19.574Z,3.63
2023-04-13T22:24:54.099Z,3.67
2023-04-13T22:27:21.827Z,3.17
2023-04-13T22:29:54.878Z,2.65
2023-04-13T22:32:23.170Z,2.67
2023-04-13T22:35:09.399Z,2.83
2023-04-13T22:37:45.952Z,2.10
2023-04-13T22:40:17.767Z,2.03
2023-04-13T22:42:57.754Z,2.03
2023-04-13T22:45:29.429Z,2.13
2023-04-13T22:48:49.490Z,1.65
2023-04-13T22:55:28.962Z,2.00
2023-04-13T22:58:30.731Z,1.80
2023-04-13T23:01:00.840Z,2.40
2023-04-13T23:03:28.700Z,2.17
2023-04-13T23:05:56.664Z,2.17
2023-04-13T23:08:24.986Z,2.60
2023-04-13T23:10:53.082Z,1.80
2023-04-13T23:13:21.178Z,2.03
2023-04-13T23:15:49.520Z,1.92
2023-04-13T23:18:17.640Z,1.98
2023-04-13T23:20:45.069Z,2.70
2023-04-13T23:23:36.591Z,2.30
2023-04-13T23:26:50.688Z,2.65
2023-04-13T23:29:19.911Z,2.83
2023-04-13T23:31:54.905Z,2.70
2023-04-13T23:34:29.771Z,2.50
2023-04-13T23:36:57.439Z,2.40
2023-04-13T23:39:24.976Z,2.38
2023-04-13T23:41:52.570Z,2.28
2023-04-13T23:44:20.576Z,2.30
2023-04-13T23:46:48.321Z,1.63
2023-04-13T23:49:16.391Z,2.40
